Latest Weather Observations for Leonora Airport

IDW60801

Issued at 9:53 am WST Thursday 24 May 2018 (issued every 10 minutes, with the page automatically refreshed every 10 minutes)

About weather observations | Map of weather stations | Latest weather observations for WA | Other Formats
Station Details ID: 012241 Name: LEONORA AERO Lat: -28.88 Lon: 121.32 Height: 370.0 m
Data from the previous 72 hours. | See also: Recent months at Leonora Airport
Date/Time
WST
Temp
°C
App
Temp
°C
Dew
Point
°C
Rel
Hum
%
Delta-T
°C
Wind Press
QNH
hPa
Press
MSL
hPa
Rain since
9am
mm
Dir  Spd
km/h
Gust
km/h
Spd
kts
Gust
kts
24/09:30am 21.2 16.3 -3.3 19 10.4 NNE 13 17 7 9 1019.8 1019.1 0.0
24/09:00am 18.7 13.9 -2.8 23 9.0 NNE 13 17 7 9 1020.0 1019.3 0.0
24/08:30am 16.3 12.9 -2.2 28 7.7 NNE 6 7 3 4 1020.2 1019.5 0.0
24/08:00am 12.9 10.6 -2.6 34 6.2 CALM 0 0 0 0 1020.1 1019.4 0.0
24/07:30am 8.3 5.7 -4.5 40 4.6 CALM 0 0 0 0 1019.9 1019.2 0.0
24/07:00am 5.6 3.0 -4.5 48 3.5 CALM 0 6 0 3 1019.7 1019.0 0.0
24/06:30am 4.7 0.7 -5.4 48 3.4 SE 7 7 4 4 1019.5 1018.8 0.0
24/06:00am 4.5 0.6 -6.4 45 3.6 SSE 6 9 3 5 1019.5 1018.8 0.0
24/05:30am 5.1 1.0 -6.4 43 3.8 SSW 7 11 4 6 1019.6 1018.9 0.0
24/05:00am 6.4 3.2 -6.9 38 4.4 SSE 2 6 1 3 1019.5 1018.8 0.0
24/04:30am 10.2 6.5 -4.9 34 5.5 NE 6 9 3 5 1019.4 1018.7 0.0
24/04:00am 12.1 7.2 -3.7 33 6.1 NE 13 17 7 9 1019.2 1018.4 0.0
24/03:30am 12.0 7.0 -4.2 32 6.2 NE 13 17 7 9 1019.3 1018.5 0.0
24/03:00am 12.2 6.8 -4.8 30 6.4 NE 15 19 8 10 1019.4 1018.7 0.0
24/02:30am 12.1 7.0 -5.4 29 6.5 NE 13 17 7 9 1019.6 1018.9 0.0
24/02:00am 12.5 7.4 -5.5 28 6.7 NE 13 17 7 9 1019.8 1019.1 0.0
24/01:30am 12.7 7.6 -4.9 29 6.7 NE 13 17 7 9 1020.0 1019.3 0.0
24/01:00am 12.8 8.1 -5.2 28 6.7 NE 11 15 6 8 1020.0 1019.3 0.0
24/12:30am 13.2 8.1 -4.9 28 6.9 NE 13 19 7 10 1020.1 1019.4 0.0
24/12:00am 13.2 8.2 -4.4 29 6.7 NE 13 15 7 8 1020.3 1019.6 0.0
 
Date/Time
WST
Temp
°C
App
Temp
°C
Dew
Point
°C
Rel
Hum
%
Delta-T
°C
Wind Press
QNH
hPa
Press
MSL
hPa
Rain since
9am
mm
Dir  Spd
km/h
Gust
km/h
Spd
kts
Gust
kts
23/11:30pm 13.1 8.0 -5.0 28 6.9 NE 13 17 7 9 1020.4 1019.7 0.0
23/11:00pm 13.7 8.6 -4.9 27 7.1 NE 13 17 7 9 1020.7 1020.0 0.0
23/10:30pm 13.1 8.8 -4.5 29 6.7 NE 9 11 5 6 1020.9 1020.2 0.0
23/10:00pm 13.6 9.2 -5.5 26 7.2 NE 9 11 5 6 1021.0 1020.3 0.0
23/09:30pm 13.9 9.6 -4.8 27 7.2 NE 9 13 5 7 1021.2 1020.4 0.0
23/09:00pm 14.1 10.2 -4.6 27 7.2 NE 7 11 4 6 1021.2 1020.4 0.0
23/08:30pm 14.8 10.5 -5.0 25 7.6 NE 9 11 5 6 1020.9 1020.2 0.0
23/08:00pm 15.5 11.6 -4.4 25 7.8 ENE 7 9 4 5 1020.8 1020.1 0.0
23/07:30pm 16.6 12.3 -5.2 22 8.5 ENE 9 11 5 6 1020.6 1019.9 0.0
23/07:00pm 17.2 13.2 -5.3 21 8.8 ENE 7 9 4 5 1020.5 1019.8 0.0
23/06:30pm 18.6 14.2 -5.4 19 9.6 ENE 9 11 5 6 1020.3 1019.6 0.0
23/06:00pm 19.2 14.8 -5.7 18 9.9 E 9 11 5 6 1020.0 1019.3 0.0
23/05:30pm 20.3 15.9 -6.3 16 10.6 E 9 11 5 6 1019.8 1019.1 0.0
23/05:00pm 22.4 18.4 -7.3 13 11.8 ENE 6 9 3 5 1019.6 1018.9 0.0
23/04:30pm 24.1 20.5 -7.0 12 12.7 ESE 4 9 2 5 1019.5 1018.8 0.0
23/04:00pm 24.3 20.2 -6.9 12 12.7 E 7 11 4 6 1019.6 1018.9 0.0
23/03:30pm 24.8 20.9 -6.5 12 13.0 NW 6 11 3 6 1019.7 1019.0 0.0
23/03:00pm 24.5 20.4 -6.7 12 12.8 NE 7 15 4 8 1019.7 1019.0 0.0
23/02:30pm 24.4 20.9 -6.8 12 12.8 ESE 4 11 2 6 1019.8 1019.1 0.0
23/02:00pm 24.7 21.7 -5.5 13 12.7 NE 2 7 1 4 1020.0 1019.3 0.0
23/01:30pm 24.4 20.5 -4.8 14 12.5 E 7 13 4 7 1020.3 1019.6 0.0
23/01:00pm 24.1 20.4 -5.0 14 12.3 NE 6 13 3 7 1020.4 1019.7 0.0
23/12:30pm 23.8 20.0 -5.3 14 12.2 W 6 11 3 6 1021.0 1020.3 0.0
23/12:00pm 23.7 19.1 -4.4 15 12.0 NNW 11 19 6 10 1021.7 1020.9 0.0
23/11:30am 23.3 19.1 -3.9 16 11.7 N 9 17 5 9 1022.3 1021.6 0.0
23/11:00am 22.3 18.1 -3.9 17 11.1 N 9 15 5 8 1022.8 1022.1 0.0
23/10:30am 21.9 16.9 -4.2 17 11.0 NNE 13 20 7 11 1023.3 1022.6 0.0
23/10:00am 20.8 15.9 -3.6 19 10.3 NE 13 19 7 10 1023.7 1023.0 0.0
23/09:30am 18.9 14.8 -2.7 23 9.1 NNE 9 15 5 8 1024.1 1023.4 0.0
23/09:00am 15.6 12.0 -1.9 30 7.2 ENE 7 9 4 5 1024.2 1023.5 0.0
23/08:30am 12.9 10.3 -1.4 37 5.9 E 2 6 1 3 1024.2 1023.5 0.0
23/08:00am 10.3 7.0 -1.4 44 4.6 SE 6 7 3 4 1024.3 1023.6 0.0
23/07:30am 8.7 5.4 -1.1 50 3.9 ESE 6 9 3 5 1024.2 1023.5 0.0
23/07:00am 7.1 3.2 -1.3 55 3.2 ESE 9 11 5 6 1024.0 1023.2 0.0
23/06:30am 6.8 2.5 -1.3 56 3.1 SE 11 13 6 7 1023.8 1023.1 0.0
23/06:00am 7.1 3.3 -1.1 56 3.2 SE 9 13 5 7 1023.7 1023.0 0.0
23/05:30am 7.1 3.2 -1.3 55 3.2 SE 9 11 5 6 1023.5 1022.8 0.0
23/05:00am 7.3 3.4 -1.4 54 3.3 SE 9 11 5 6 1023.4 1022.7 0.0
23/04:30am 7.7 3.8 -1.3 53 3.5 ESE 9 11 5 6 1023.5 1022.8 0.0
23/04:00am 8.2 4.4 -0.8 53 3.5 SE 9 13 5 7 1023.6 1022.9 0.0
23/03:30am 7.2 3.8 -2.0 52 3.5 SE 6 9 3 5 1023.7 1023.0 0.0
23/03:00am 8.1 4.8 -1.4 51 3.7 SSE 6 7 3 4 1023.7 1023.0 0.0
23/02:30am 9.2 5.8 -1.8 46 4.3 ENE 6 7 3 4 1023.8 1023.1 0.0
23/02:00am 10.8 7.4 -0.9 44 4.7 ENE 7 9 4 5 1024.0 1023.2 0.0
23/01:30am 12.2 8.1 -0.3 42 5.2 ENE 11 15 6 8 1024.0 1023.2 0.0
23/01:00am 12.8 8.3 -0.4 40 5.5 ENE 13 17 7 9 1023.8 1023.1 0.0
23/12:30am 13.1 8.6 -0.5 39 5.7 ENE 13 17 7 9 1023.8 1023.1 0.0
23/12:00am 13.3 8.7 -0.7 38 5.8 ENE 13 17 7 9 1024.1 1023.4 0.0
 
Date/Time
WST
Temp
°C
App
Temp
°C
Dew
Point
°C
Rel
Hum
%
Delta-T
°C
Wind Press
QNH
hPa
Press
MSL
hPa
Rain since
9am
mm
Dir  Spd
km/h
Gust
km/h
Spd
kts
Gust
kts
22/11:30pm 13.4 8.9 -0.6 38 5.9 ENE 13 17 7 9 1024.3 1023.6 0.0
22/11:00pm 13.7 9.1 -0.7 37 6.0 ENE 13 17 7 9 1024.4 1023.7 0.0
22/10:30pm 13.4 9.1 -1.3 36 6.1 ENE 11 15 6 8 1024.6 1023.9 0.0
22/10:00pm 13.5 9.3 -0.9 37 6.0 E 11 13 6 7 1024.7 1024.0 0.0
22/09:30pm 15.3 10.7 -0.9 33 6.9 E 13 17 7 9 1024.5 1023.8 0.0
22/09:00pm 15.9 11.8 -0.3 33 7.0 E 11 15 6 8 1024.4 1023.7 0.0
22/08:30pm 16.0 11.4 -0.7 32 7.2 E 13 17 7 9 1024.4 1023.7 0.0
22/08:00pm 16.8 12.3 -0.4 31 7.4 E 13 17 7 9 1024.2 1023.5 0.0
22/07:30pm 17.2 12.7 -0.5 30 7.7 E 13 15 7 8 1024.0 1023.2 0.0
22/07:00pm 18.0 13.4 -0.8 28 8.2 E 13 19 7 10 1023.6 1022.9 0.0
22/06:30pm 18.1 13.4 -1.7 26 8.5 ESE 13 17 7 9 1023.4 1022.7 0.0
22/06:00pm 19.0 14.4 -1.4 25 8.8 ESE 13 15 7 8 1023.2 1022.5 0.0
22/05:30pm 20.0 15.6 -2.3 22 9.6 ESE 11 13 6 7 1022.9 1022.2 0.0
22/05:00pm 21.7 17.0 -1.6 21 10.3 ESE 13 19 7 10 1022.7 1022.0 0.0
22/04:30pm 22.5 18.0 -3.0 18 11.1 ESE 11 13 6 7 1022.6 1021.9 0.0
22/04:00pm 23.1 17.9 -2.5 18 11.2 ENE 15 20 8 11 1022.6 1021.9 0.0
22/03:30pm 23.2 18.0 -2.4 18 11.3 ESE 15 22 8 12 1022.6 1021.9 0.0
22/03:00pm 23.3 19.4 -1.6 19 11.1 ENE 9 15 5 8 1022.8 1022.1 0.0
22/02:30pm 23.6 19.0 -1.3 19 11.3 SE 13 19 7 10 1022.9 1022.2 0.0
22/02:00pm 23.4 18.8 -0.8 20 11.0 E 13 20 7 11 1023.1 1022.4 0.0
22/01:30pm 22.9 19.3 -1.9 19 11.0 E 7 13 4 7 1023.5 1022.8 0.0
22/01:00pm 23.5 19.7 -0.7 20 11.0 N 9 15 5 8 1023.8 1023.1 0.0
22/12:30pm 22.1 17.6 -0.6 22 10.3 NE 13 20 7 11 1024.6 1023.9 0.0
22/12:00pm 22.2 18.1 0.1 23 10.1 NE 11 17 6 9 1025.1 1024.4 0.0
22/11:30am 21.5 17.1 0.1 24 9.8 ENE 13 20 7 11 1025.9 1025.2 0.0
22/11:00am 21.7 17.4 0.8 25 9.6 NE 13 22 7 12 1026.5 1025.9 0.0
22/10:30am 20.7 16.0 1.1 27 9.1 NE 15 24 8 13 1027.1 1026.4 0.0
22/10:00am 19.8 15.5 1.3 29 8.5 NE 13 22 7 12 1027.6 1026.9 0.0
22/09:30am 18.3 13.7 1.8 33 7.6 NE 15 26 8 14 1027.9 1027.2 0.0
22/09:00am 16.4 11.6 2.4 39 6.4 NE 17 20 9 11 1028.1 1027.4 0.0
22/08:30am 14.4 10.9 3.5 48 5.0 ENE 11 15 6 8 1028.1 1027.4 0.0
22/08:00am 12.1 8.9 3.3 55 3.9 E 9 13 5 7 1028.1 1027.4 0.0
22/07:30am 10.6 7.8 3.4 61 3.2 ENE 7 9 4 5 1028.0 1027.3 0.0
22/07:00am 9.4 6.6 3.2 65 2.7 ENE 7 13 4 7 1027.7 1027.0 0.0
22/06:30am 9.1 5.5 3.1 66 2.6 E 11 15 6 8 1027.5 1026.8 0.0
22/06:00am 9.0 5.4 3.2 67 2.5 E 11 13 6 7 1027.3 1026.6 0.0
22/05:30am 9.2 5.2 2.8 64 2.8 E 13 17 7 9 1027.2 1026.5 0.0
22/05:00am 9.7 5.7 3.0 63 2.9 E 13 15 7 8 1027.2 1026.5 0.0
22/04:30am 10.1 6.2 3.2 62 3.1 E 13 17 7 9 1027.2 1026.5 0.0
22/04:00am 9.7 5.7 2.8 62 3.0 ESE 13 15 7 8 1027.1 1026.4 0.0
22/03:30am 9.7 6.1 2.8 62 3.0 ESE 11 13 6 7 1027.2 1026.5 0.0
22/03:00am 10.1 6.5 2.9 61 3.1 ESE 11 13 6 7 1027.2 1026.5 0.0
22/02:30am 9.9 5.8 2.5 60 3.2 ESE 13 13 7 7 1027.5 1026.8 0.0
22/02:00am 9.9 6.1 2.0 58 3.4 ESE 11 11 6 6 1027.5 1026.8 0.0
22/01:30am 10.5 7.1 2.1 56 3.6 ESE 9 11 5 6 1027.5 1026.8 0.0
22/01:00am 11.6 8.7 2.4 53 4.0 ESE 7 9 4 5 1027.7 1027.0 0.0
22/12:30am 12.3 9.4 2.5 51 4.4 ESE 7 9 4 5 1027.7 1027.0 0.0
22/12:00am 13.2 9.9 2.7 49 4.7 ESE 9 15 5 8 1027.5 1026.8 0.0
 
Date/Time
WST
Temp
°C
App
Temp
°C
Dew
Point
°C
Rel
Hum
%
Delta-T
°C
Wind Press
QNH
hPa
Press
MSL
hPa
Rain since
9am
mm
Dir  Spd
km/h
Gust
km/h
Spd
kts
Gust
kts
21/11:30pm 14.1 10.1 2.7 46 5.2 ENE 13 15 7 8 1027.5 1026.8 0.0
21/11:00pm 14.5 10.5 2.7 45 5.3 ENE 13 17 7 9 1027.6 1026.9 0.0
21/10:30pm 14.2 10.1 2.1 44 5.4 E 13 17 7 9 1027.9 1027.2 0.0
21/10:00pm 14.7 11.0 2.3 43 5.6 E 11 15 6 8 1027.9 1027.2 0.0
21/09:30pm 14.8 11.0 2.0 42 5.8 E 11 15 6 8 1027.7 1027.0 0.0
21/09:00pm 15.5 11.7 2.0 40 6.1 E 11 15 6 8 1027.4 1026.7 0.0
21/08:30pm 16.0 11.9 2.1 39 6.3 E 13 19 7 10 1027.3 1026.6 0.0
21/08:00pm 16.1 11.6 2.2 39 6.3 ESE 15 19 8 10 1027.3 1026.6 0.0
21/07:30pm 16.4 12.2 1.7 37 6.7 ESE 13 17 7 9 1027.2 1026.5 0.0
21/07:00pm 16.9 12.7 1.8 36 6.8 ESE 13 15 7 8 1027.2 1026.5 0.0
21/06:30pm 17.9 13.7 1.8 34 7.4 ESE 13 15 7 8 1027.0 1026.3 0.0
21/06:00pm 18.6 14.4 1.6 32 7.8 ESE 13 15 7 8 1026.6 1026.0 0.0
21/05:30pm 19.7 15.1 1.7 30 8.4 ESE 15 20 8 11 1026.3 1025.6 0.0
21/05:00pm 20.8 15.8 1.1 27 9.1 ESE 17 24 9 13 1026.1 1025.4 0.0
21/04:30pm 21.9 16.7 -0.1 23 10.0 E 17 26 9 14 1025.9 1025.2 0.0
21/04:00pm 22.1 16.0 0.6 24 9.9 ESE 22 30 12 16 1025.7 1025.0 0.0
21/03:30pm 22.4 17.5 2.0 26 9.7 ESE 17 24 9 13 1025.7 1025.0 0.0
21/03:00pm 22.5 18.1 2.6 27 9.6 E 15 20 8 11 1025.8 1025.1 0.0
21/02:30pm 22.2 17.8 2.8 28 9.4 E 15 26 8 14 1025.9 1025.2 0.0
21/02:00pm 22.3 17.3 1.3 25 9.8 E 17 28 9 15 1025.8 1025.1 0.0
21/01:30pm 22.3 17.6 3.4 29 9.3 E 17 28 9 15 1026.0 1025.3 0.0
21/01:00pm 21.6 17.5 4.2 32 8.6 ESE 15 22 8 12 1026.5 1025.9 0.0
21/12:30pm 20.7 16.0 3.4 32 8.4 E 17 28 9 15 1027.2 1026.5 0.0
21/12:00pm 20.4 15.9 4.4 35 7.8 ENE 17 26 9 14 1027.8 1027.1 0.0
21/11:30am 20.1 16.4 4.6 36 7.7 ENE 13 22 7 12 1028.5 1027.8 0.0
21/11:00am 19.1 14.3 4.8 39 7.0 ENE 19 26 10 14 1029.1 1028.5 0.0
21/10:30am 18.7 14.4 5.2 41 6.7 ENE 17 28 9 15 1029.8 1029.1 0.0
21/10:00am 17.3 12.1 5.6 46 5.7 ENE 22 30 12 16 1030.2 1029.5 0.0

Other Formats:

Comma delimited format used in spreadsheet applications
http://www.bom.gov.au/fwo/IDW60801/IDW60801.94450.axf

JavaScript Object Notation format (JSON) in row-major order
http://www.bom.gov.au/fwo/IDW60801/IDW60801.94450.json